createdAt,value
2022-10-20T00:08:35.673Z,4.8
2022-10-20T00:18:35.729Z,4.8
2022-10-20T00:28:11.066Z,4.9
2022-10-20T00:38:11.120Z,4.6
2022-10-20T00:48:11.071Z,4.8
2022-10-20T00:58:11.072Z,5.1
2022-10-20T01:08:11.073Z,5.9
2022-10-20T01:18:11.080Z,4.9
2022-10-20T01:28:11.075Z,5.7
2022-10-20T01:38:11.081Z,5.8
2022-10-20T01:48:11.083Z,6.0
2022-10-20T01:58:11.086Z,6.7
2022-10-20T02:08:35.792Z,6.5
2022-10-20T02:18:35.766Z,6.4
2022-10-20T02:28:10.996Z,7.3
2022-10-20T02:38:11.103Z,6.4
2022-10-20T02:48:35.773Z,6.9
2022-10-20T02:58:11.109Z,6.8
2022-10-20T03:18:11.108Z,6.7
2022-10-20T03:28:11.108Z,7.3
2022-10-20T03:38:11.116Z,7.4
2022-10-20T03:48:11.115Z,7.8
2022-10-20T04:08:11.165Z,7.6
2022-10-20T04:18:11.043Z,7.6
2022-10-20T04:28:11.039Z,7.0
2022-10-20T04:38:11.039Z,7.7
2022-10-20T04:58:11.044Z,7.5
2022-10-20T05:08:35.769Z,7.6
2022-10-20T05:18:11.050Z,7.9
2022-10-20T05:28:11.053Z,7.7
2022-10-20T05:38:35.735Z,7.3
2022-10-20T05:48:38.355Z,7.2
2022-10-20T05:58:11.059Z,7.2
2022-10-20T06:08:11.079Z,7.2
2022-10-20T06:18:11.071Z,7.7
2022-10-20T06:28:35.746Z,7.5
2022-10-20T07:28:11.100Z,7.3
2022-10-20T07:38:11.104Z,6.4
2022-10-20T08:08:11.115Z,7.2
2022-10-20T08:28:11.131Z,8.0
2022-10-20T08:38:11.129Z,7.5
2022-10-20T08:48:11.130Z,7.6
2022-10-20T09:28:11.155Z,8.0
2022-10-20T09:38:11.152Z,8.6
2022-10-20T09:48:11.208Z,8.6
2022-10-20T09:58:14.989Z,7.8
2022-10-20T10:08:11.185Z,8.0
2022-10-20T10:18:11.172Z,7.9
2022-10-20T10:28:35.844Z,8.5
2022-10-20T10:38:11.198Z,8.9
2022-10-20T10:48:11.207Z,9.1
2022-10-20T11:08:11.192Z,8.1
2022-10-20T11:18:11.197Z,9.7
2022-10-20T11:28:11.219Z,10.6
2022-10-20T11:39:00.536Z,8.9
2022-10-20T11:48:35.873Z,9.3
2022-10-20T11:58:11.216Z,9.9
2022-10-20T12:08:29.278Z,9.4
2022-10-20T12:18:35.882Z,8.8
2022-10-20T12:28:11.216Z,8.8
2022-10-20T12:38:11.219Z,9.2
2022-10-20T12:48:11.224Z,9.8
2022-10-20T12:58:35.895Z,10.3
2022-10-20T13:08:11.242Z,10.1
2022-10-20T13:28:11.243Z,10.6
2022-10-20T13:38:11.253Z,11.1
2022-10-20T13:48:11.251Z,10.8
2022-10-20T13:58:11.259Z,10.2
2022-10-20T14:09:00.607Z,10.9
2022-10-20T14:19:00.605Z,10.9
2022-10-20T14:29:00.608Z,10.4
2022-10-20T14:38:11.392Z,9.6
2022-10-20T14:48:11.274Z,8.9
2022-10-20T14:58:11.292Z,8.7
2022-10-20T15:08:11.286Z,8.4
2022-10-20T15:18:11.292Z,8.4
2022-10-20T15:28:11.294Z,9.2
2022-10-20T15:38:35.965Z,8.5
2022-10-20T15:48:11.296Z,9.1
2022-10-20T15:58:11.298Z,10.6
2022-10-20T16:08:11.330Z,10.4
2022-10-20T16:18:11.310Z,10.3
2022-10-20T16:38:11.319Z,11.4
2022-10-20T16:48:11.321Z,11.4
2022-10-20T16:58:11.323Z,10.7
2022-10-20T17:08:11.325Z,11.2
2022-10-20T17:18:35.996Z,11.1
2022-10-20T17:28:11.326Z,10.9
2022-10-20T17:48:36.037Z,10.6
2022-10-20T17:58:36.016Z,10.7
2022-10-20T18:08:36.068Z,10.5
2022-10-20T18:18:11.348Z,10.6
2022-10-20T18:28:11.391Z,10.8
2022-10-20T18:38:36.023Z,10.9
2022-10-20T18:48:11.362Z,10.0
2022-10-20T18:58:11.357Z,9.9
2022-10-20T19:08:36.054Z,9.8
2022-10-20T19:18:11.371Z,10.0
2022-10-20T19:28:11.378Z,9.8
2022-10-20T19:38:11.377Z,10.4
2022-10-20T19:48:36.040Z,9.5
2022-10-20T19:58:11.381Z,10.1
2022-10-20T20:08:11.377Z,9.9
2022-10-20T20:18:36.054Z,10.3
2022-10-20T20:28:11.391Z,10.2
2022-10-20T20:48:11.405Z,10.6
2022-10-20T20:58:11.432Z,12.2
2022-10-20T21:08:11.397Z,15.3
2022-10-20T21:18:11.409Z,11.7
2022-10-20T21:28:11.417Z,10.7
2022-10-20T21:38:36.084Z,11.1
2022-10-20T21:58:11.418Z,11.9
2022-10-20T22:08:11.427Z,10.8
2022-10-20T22:18:11.429Z,11.3
2022-10-20T22:28:11.431Z,10.5
2022-10-20T22:38:11.439Z,11.3
2022-10-20T22:48:11.437Z,13.1
2022-10-20T22:58:11.448Z,11.0
2022-10-20T23:08:11.450Z,10.4
2022-10-20T23:18:11.454Z,10.7
2022-10-20T23:28:11.455Z,10.1
2022-10-20T23:38:11.454Z,11.0
2022-10-20T23:48:36.126Z,10.9
